Terminal Aerodrome Forecast
Issued by NWS Flagstaff, AZ

Home | Current Version | Previous Version | Text Only | Print | Product List | Glossary On
Versions: 1 2 3 4 5 6 7 8 9 10 11 12
140
FTUS45 KFGZ 300531
TAFFLG
TAF
KFLG 300531Z 3006/3106 VRB05KT P6SM SCT120 SCT200
     FM301800 23008KT P6SM FEW060 SCT090 BKN110
      TEMPO 3020/3024 VRB10G20KT 4SM -TSRA BKN060CB
     FM310000 VRB10G20KT P6SM -SHRA FEW060 BKN090
     FM310400 VRB05KT P6SM BKN090=

USA.gov is the U.S. government's official web portal to all federal, state and local government web resources and services.